Latest Weather Observations for Merimbula

IDN60801

Issued at 5:05 pm EDT Thursday 29 January 2015 (issued every 30 minutes, with the page automatically refreshed every 10 minutes)

About weather observations | Map of weather stations | Latest weather observations for NSW | Other Formats
Station Details ID: 069147 Name: MERIMBULA AIRPORT AWS Lat: -36.91 Lon: 149.90 Height: 1.5 m
Data from the previous 72 hours. | See also: Recent months at Merimbula
Date/Time
EDT
Temp
°C
App
Temp
°C
Dew
Point
Rel
Hum
%
Delta-T
°C
Wind Press
QNH
hPa
Press
MSL
hPa
Rain
since 9 am
mm
Dir
 
Spd
km/h
Gust
km/h
Spd
kts
Gust
kts
29/05:00pm 20.3 18.1 13.3 64 4.0 SW 17 30 9 16 1013.0 1013.0 2.8
29/04:30pm 18.1 15.5 12.1 68 3.3 SW 17 30 9 16 1013.5 1013.5 2.8
29/04:00pm 19.6 14.6 12.1 62 4.2 S 30 48 16 26 1013.4 1013.4 2.8
29/03:45pm 19.1 13.9 10.1 56 4.8 SSW 28 48 15 26 1013.5 1013.5 2.8
29/03:30pm 20.2 16.1 10.0 52 5.5 SSW 22 35 12 19 1013.3 1013.3 2.8
29/03:01pm 20.4 15.3 10.5 53 5.4 SSW 28 48 15 26 1013.6 1013.6 2.8
29/03:00pm 20.4 15.4 11.1 55 5.1 S 28 44 15 24 1013.6 1013.6 2.8
29/02:30pm 20.9 15.9 11.0 53 5.4 SSW 28 44 15 24 1013.7 1013.7 2.8
29/02:00pm 19.7 14.4 9.9 53 5.2 SSW 28 43 15 23 1013.6 1013.6 2.8
29/01:30pm 19.8 16.8 12.6 63 4.0 SW 20 33 11 18 1013.9 1013.9 2.6
29/01:00pm 17.2 15.3 14.3 83 1.7 SSW 17 32 9 17 1014.8 1014.8 2.6
29/12:30pm 18.9 16.7 13.3 70 3.2 SW 17 26 9 14 1014.9 1014.9 2.4
29/12:00pm 17.0 15.0 13.9 82 1.8 WSW 17 24 9 13 1015.3 1015.3 2.4
29/11:30am 15.5 14.3 13.9 90 0.9 SSW 13 19 7 10 1015.8 1015.8 2.2
29/11:00am 15.4 13.9 13.1 86 1.3 SSW 13 17 7 9 1016.0 1016.0 1.2
29/10:30am 15.2 11.1 11.6 79 1.9 S 24 35 13 19 1016.0 1016.0 0.4
29/10:00am 18.8 15.7 12.3 66 3.6 SW 20 30 11 16 1015.6 1015.6 0.0
29/09:30am 17.8 14.4 11.4 66 3.5 SW 20 32 11 17 1015.7 1015.7 0.0
29/09:00am 16.3 13.4 11.0 71 2.8 WSW 17 26 9 14 1015.7 1015.7 4.6
29/08:30am 15.8 13.2 12.0 78 2.1 SW 17 24 9 13 1015.6 1015.6 4.6
29/08:00am 14.4 12.5 11.7 84 1.4 WSW 13 20 7 11 1015.5 1015.5 4.6
29/07:30am 13.5 11.3 10.9 84 1.4 WSW 13 22 7 12 1015.1 1015.1 4.4
29/07:00am 12.8 10.2 10.7 87 1.1 WSW 15 19 8 10 1015.1 1015.1 4.4
29/06:30am 12.9 10.8 11.1 89 0.9 WSW 13 17 7 9 1015.2 1015.2 4.4
29/06:00am 13.2 11.8 10.9 86 1.2 SSW 9 15 5 8 1015.2 1015.2 4.2
29/05:30am 13.3 11.7 10.3 82 1.6 SW 9 17 5 9 1015.1 1015.1 3.6
29/05:00am 13.2 10.8 10.0 81 1.6 WSW 13 20 7 11 1014.7 1014.7 3.6
29/04:30am 13.1 10.3 10.1 82 1.5 WSW 15 24 8 13 1014.6 1014.6 3.6
29/04:00am 13.3 10.5 10.1 81 1.7 WSW 15 20 8 11 1014.8 1014.8 3.6
29/03:30am 12.9 10.5 9.9 82 1.5 SW 13 24 7 13 1015.0 1015.0 3.6
29/03:00am 13.0 11.1 10.5 85 1.3 SW 11 20 6 11 1015.2 1015.2 3.6
29/02:30am 13.0 10.7 10.5 85 1.3 SW 13 17 7 9 1015.6 1015.6 3.6
29/02:00am 13.6 11.0 10.8 83 1.5 SW 15 22 8 12 1015.9 1015.9 3.6
29/01:30am 13.7 11.4 10.3 80 1.8 WSW 13 20 7 11 1016.3 1016.3 3.4
29/01:00am 13.5 11.7 10.9 84 1.4 WSW 11 15 6 8 1016.5 1016.5 3.4
29/12:30am 13.8 12.5 11.1 84 1.4 SW 9 15 5 8 1016.8 1016.8 3.4
29/12:00am 14.3 12.3 11.6 84 1.4 SW 13 19 7 10 1017.0 1017.0 3.4
 
Date/Time
EDT
Temp
°C
App
Temp
°C
Dew
Point
Rel
Hum
%
Delta-T
°C
Wind Press
QNH
hPa
Press
MSL
hPa
Rain
since 9 am
mm
Dir
 
Spd
km/h
Gust
km/h
Spd
kts
Gust
kts
28/11:30pm 14.3 12.7 11.6 84 1.4 SW 11 19 6 10 1017.1 1017.1 3.4
28/11:00pm 14.6 11.9 11.6 82 1.6 SSW 17 28 9 15 1017.3 1017.3 3.4
28/10:30pm 14.3 13.3 12.3 88 1.1 SW 9 15 5 8 1017.7 1017.7 3.4
28/10:00pm 14.4 13.4 12.3 87 1.1 WSW 9 13 5 7 1017.6 1017.6 3.4
28/09:30pm 14.7 13.4 12.6 87 1.1 SW 11 19 6 10 1017.6 1017.6 3.4
28/09:00pm 14.9 12.0 12.4 85 1.4 SSW 19 26 10 14 1017.6 1017.6 3.2
28/08:30pm 14.9 13.3 12.9 88 1.1 SSW 13 20 7 11 1017.4 1017.4 3.2
28/08:00pm 15.1 14.5 13.5 90 0.9 WSW 9 13 5 7 1017.4 1017.4 3.2
28/07:30pm 15.0 13.9 13.0 88 1.1 SW 11 17 6 9 1017.4 1017.4 3.2
28/07:00pm 14.9 13.7 12.9 88 1.1 SSW 11 17 6 9 1017.2 1017.2 3.2
28/06:30pm 15.1 13.0 13.5 90 0.9 S 17 26 9 14 1017.2 1017.2 3.2
28/06:00pm 17.0 16.1 14.8 87 1.3 S 13 24 7 13 1016.7 1016.7 2.4
28/05:46pm 16.7 15.1 15.1 90 0.9 S 17 26 9 14 1016.6 1016.6 2.4
28/05:30pm 16.0 13.2 14.2 89 1.0 S 22 33 12 18 1016.7 1016.7 2.4
28/05:29pm 16.2 13.4 14.4 89 1.0 SSW 22 33 12 18 1016.7 1016.7 2.2
28/05:00pm 17.5 15.7 14.4 82 1.8 SSW 17 28 9 15 1016.4 1016.4 1.0
28/04:30pm 18.5 15.3 9.8 57 4.6 S 17 24 9 13 1016.3 1016.3 0.6
28/04:00pm 19.3 17.1 13.2 68 3.5 SE 17 24 9 13 1016.4 1016.4 0.6
28/03:30pm 19.5 19.7 15.8 79 2.2 SW 9 15 5 8 1016.6 1016.6 0.6
28/03:00pm 17.8 17.4 15.1 84 1.6 SW 11 17 6 9 1016.9 1016.9 0.6
28/02:30pm 17.6 16.5 14.3 81 1.9 SSE 13 19 7 10 1017.1 1017.1 0.2
28/02:00pm 19.0 17.0 13.8 72 3.0 SSE 17 24 9 13 1016.8 1016.8 0.2
28/01:30pm 19.5 18.5 13.4 68 3.5 SW 11 17 6 9 1016.8 1016.8 0.2
28/01:00pm 19.2 17.3 12.9 67 3.5 SW 15 20 8 11 1016.8 1016.8 0.2
28/12:30pm 19.4 17.2 13.3 68 3.5 SSW 17 24 9 13 1017.0 1017.0 0.2
28/12:00pm 19.5 18.2 13.7 69 3.3 SSW 13 19 7 10 1017.1 1017.1 0.2
28/11:30am 19.0 17.7 13.6 71 3.1 SW 13 20 7 11 1017.3 1017.3 0.2
28/11:00am 19.3 17.2 13.5 69 3.3 S 17 24 9 13 1017.4 1017.4 0.2
28/10:30am 19.9 17.1 12.7 63 4.1 S 19 28 10 15 1017.3 1017.3 0.2
28/10:00am 20.1 17.4 12.8 63 4.1 SSW 19 28 10 15 1017.0 1017.0 0.2
28/09:30am 20.6 18.7 13.1 62 4.3 S 15 20 8 11 1016.9 1016.9 0.2
28/09:00am 19.6 18.1 13.1 66 3.7 SW 13 20 7 11 1016.5 1016.5 0.6
28/08:30am 18.7 18.0 13.1 70 3.2 WSW 9 13 5 7 1016.6 1016.6 0.6
28/08:00am 17.2 15.6 12.7 75 2.5 SW 13 19 7 10 1016.6 1016.6 0.6
28/07:30am 16.4 14.7 12.6 78 2.1 SW 13 22 7 12 1016.2 1016.2 0.6
28/07:00am 15.2 14.7 12.5 84 1.5 SSW 7 13 4 7 1015.9 1015.9 0.6
28/06:30am 14.4 13.4 12.4 88 1.1 SW 9 13 5 7 1015.8 1015.8 0.6
28/06:00am 14.4 13.9 12.6 89 1.0 SW 7 9 4 5 1015.6 1015.6 0.6
28/05:30am 14.6 14.1 12.6 88 1.1 WSW 7 7 4 4 1015.6 1015.6 0.6
28/05:00am 14.2 13.5 11.9 86 1.2 W 7 7 4 4 1015.5 1015.5 0.6
28/04:30am 14.6 14.1 12.5 87 1.1 SW 7 7 4 4 1015.3 1015.3 0.6
28/04:00am 14.6 13.9 12.1 85 1.4 SW 7 9 4 5 1015.2 1015.2 0.6
28/03:30am 15.2 14.5 12.0 81 1.7 SW 7 11 4 6 1015.2 1015.2 0.6
28/03:00am 16.2 15.6 11.8 75 2.4 SW 6 9 3 5 1015.4 1015.4 0.6
28/02:30am 16.5 15.4 11.9 74 2.5 WSW 9 11 5 6 1015.7 1015.7 0.6
28/02:00am 16.4 15.4 12.2 76 2.3 SW 9 11 5 6 1016.0 1016.0 0.6
28/01:30am 16.1 15.7 12.3 78 2.1 SW 6 11 3 6 1016.2 1016.2 0.6
28/01:00am 16.4 17.3 12.9 80 1.9 CALM 0 0 0 0 1016.3 1016.3 0.6
28/12:30am 16.5 16.0 12.7 78 2.1 NW 7 7 4 4 1016.4 1016.4 0.6
28/12:00am 16.6 17.5 12.8 78 2.1 CALM 0 9 0 5 1016.6 1016.6 0.6
 
Date/Time
EDT
Temp
°C
App
Temp
°C
Dew
Point
Rel
Hum
%
Delta-T
°C
Wind Press
QNH
hPa
Press
MSL
hPa
Rain
since 9 am
mm
Dir
 
Spd
km/h
Gust
km/h
Spd
kts
Gust
kts
27/11:30pm 16.4 17.3 12.9 80 1.9 CALM 0 0 0 0 1016.6 1016.6 0.6
27/11:00pm 16.6 17.7 13.5 82 1.7 CALM 0 2 0 1 1016.5 1016.5 0.6
27/10:30pm 16.3 15.8 12.7 79 2.0 W 7 9 4 5 1016.6 1016.6 0.6
27/10:00pm 16.5 16.0 12.1 75 2.4 WNW 6 9 3 5 1016.4 1016.4 0.6
27/09:30pm 17.2 17.0 12.9 76 2.4 WSW 6 9 3 5 1016.4 1016.4 0.6
27/09:00pm 17.1 18.0 12.8 76 2.4 CALM 0 9 0 5 1016.3 1016.3 0.6
27/08:30pm 17.2 17.0 12.9 76 2.4 WNW 6 9 3 5 1016.1 1016.1 0.6
27/08:00pm 17.3 18.2 12.8 75 2.5 CALM 0 0 0 0 1016.0 1016.0 0.6
27/07:30pm 17.4 17.0 12.9 75 2.5 WSW 7 11 4 6 1015.9 1015.9 0.6
27/07:00pm 17.6 16.8 12.9 74 2.6 SSW 9 15 5 8 1015.5 1015.5 0.6
27/06:30pm 17.8 17.0 12.9 73 2.7 SSW 9 13 5 7 1015.2 1015.2 0.6
27/06:00pm 18.0 17.3 13.3 74 2.6 SW 9 13 5 7 1015.0 1015.0 0.6
27/05:30pm 17.9 17.4 12.8 72 2.8 S 7 13 4 7 1015.3 1015.3 0.6
27/05:00pm 18.1 17.3 12.8 71 3.0 S 9 15 5 8 1015.4 1015.4 0.6
27/04:30pm 18.7 18.3 13.1 70 3.2 SSE 7 11 4 6 1015.4 1015.4 0.6
27/04:00pm 18.5 17.8 14.2 76 2.5 SSE 11 17 6 9 1015.7 1015.7 0.6
27/03:30pm 17.4 17.4 14.3 82 1.8 SSW 7 11 4 6 1015.8 1015.8 0.6
27/03:00pm 16.8 16.5 14.4 86 1.4 SW 9 13 5 7 1016.0 1016.0 0.6
27/02:40pm 16.6 16.8 14.2 86 1.4 SE 6 17 3 9 1016.2 1016.2 0.6
27/02:30pm 16.5 17.1 14.2 86 1.3 W 4 9 2 5 1016.3 1016.3 0.6
27/02:19pm 16.6 16.5 13.9 84 1.5 SSW 7 13 4 7 1016.4 1016.4 0.6
27/02:00pm 17.4 17.0 14.1 81 1.9 SE 9 15 5 8 1016.3 1016.3 0.0
27/01:30pm 17.9 16.9 13.4 75 2.5 SSW 11 15 6 8 1016.1 1016.1 0.0
27/01:00pm 18.5 18.1 13.1 71 3.0 S 7 11 4 6 1016.3 1016.3 0.0
27/12:30pm 19.0 19.8 12.5 66 3.6 CALM 0 0 0 0 1016.4 1016.4 0.0
27/12:00pm 19.0 19.8 12.5 66 3.6 CALM 0 0 0 0 1016.4 1016.4 0.0
27/11:30am 19.3 20.1 12.6 65 3.8 CALM 0 0 0 0 1016.5 1016.5 0.0
27/11:00am 19.3 19.1 13.0 67 3.6 WNW 6 13 3 7 1016.3 1016.3 0.0
27/10:30am 18.0 17.1 12.5 70 3.1 NW 9 15 5 8 1016.7 1016.7 0.0
27/10:00am 17.4 16.6 11.7 69 3.1 WNW 7 11 4 6 1016.6 1016.6 0.0
27/09:30am 16.9 16.1 11.8 72 2.8 W 7 9 4 5 1016.7 1016.7 0.0
27/09:00am 16.8 15.6 11.7 72 2.8 WNW 9 13 5 7 1016.7 1016.7 0.0
27/08:30am 16.5 15.6 11.2 71 2.9 W 7 9 4 5 1016.3 1016.3 0.0
27/08:00am 16.2 15.5 11.4 73 2.6 W 6 13 3 7 1016.1 1016.1 0.0
27/07:30am 16.0 14.4 11.6 75 2.4 NW 11 15 6 8 1016.0 1016.0 0.0
27/07:00am 15.9 14.7 11.5 75 2.4 WNW 9 13 5 7 1015.9 1015.9 0.0
27/06:30am 15.8 15.8 11.2 74 2.5 W 2 9 1 5 1015.8 1015.8 0.0
27/06:00am 15.7 14.4 11.3 75 2.4 WNW 9 13 5 7 1015.8 1015.8 0.0
27/05:30am 15.7 14.5 11.5 76 2.3 WNW 9 13 5 7 1015.4 1015.4 0.0
27/05:00am 15.5 14.6 11.5 77 2.1 WNW 7 9 4 5 1015.5 1015.5 0.0
27/04:30am 15.6 14.0 11.6 77 2.2 NW 11 13 6 7 1015.6 1015.6 0.0
27/04:00am 15.6 14.0 11.4 76 2.3 NW 11 15 6 8 1015.8 1015.8 0.0
27/03:30am 15.7 14.5 11.7 77 2.2 WNW 9 15 5 8 1016.1 1016.1 0.0
27/03:00am 15.6 14.5 10.8 73 2.5 W 7 11 4 6 1016.3 1016.3 0.0
27/02:30am 15.6 13.8 10.8 73 2.5 WNW 11 13 6 7 1016.4 1016.4 0.0
27/02:00am 15.8 14.0 11.0 73 2.6 NW 11 15 6 8 1016.6 1016.6 0.0
27/01:30am 15.6 13.7 10.4 71 2.7 WNW 11 13 6 7 1017.0 1017.0 0.0
27/01:00am 15.6 14.5 10.6 72 2.6 W 7 9 4 5 1017.3 1017.3 0.0
27/12:30am 15.7 15.9 10.5 71 2.7 CALM 0 0 0 0 1017.6 1017.6 0.0
27/12:00am 15.7 15.9 10.7 72 2.6 CALM 0 0 0 0 1017.7 1017.7 0.0
 
Date/Time
EDT
Temp
°C
App
Temp
°C
Dew
Point
Rel
Hum
%
Delta-T
°C
Wind Press
QNH
hPa
Press
MSL
hPa
Rain
since 9 am
mm
Dir
 
Spd
km/h
Gust
km/h
Spd
kts
Gust
kts
26/11:30pm 15.9 14.8 10.7 71 2.8 W 7 11 4 6 1017.9 1017.9 0.0
26/11:00pm 15.9 15.4 10.7 71 2.8 NW 4 11 2 6 1018.1 1018.1 0.0
26/10:30pm 15.9 14.7 10.2 69 3.0 SW 7 11 4 6 1018.1 1018.1 0.0
26/10:00pm 16.0 14.0 10.3 69 3.0 SW 11 15 6 8 1018.1 1018.1 0.0
26/09:30pm 16.2 14.7 10.5 69 3.0 SW 9 15 5 8 1018.0 1018.0 0.0
26/09:00pm 16.2 14.6 10.3 68 3.1 SW 9 13 5 7 1017.7 1017.7 0.0
26/08:30pm 16.5 15.1 10.8 69 3.0 SW 9 13 5 7 1017.5 1017.5 0.0
26/08:00pm 16.8 15.4 10.9 68 3.2 SSW 9 13 5 7 1017.1 1017.1 0.0
26/07:30pm 17.0 14.9 9.9 63 3.7 S 11 17 6 9 1016.9 1016.9 0.0
26/07:00pm 17.2 15.1 9.6 61 4.0 S 11 15 6 8 1016.4 1016.4 0.0
26/06:30pm 17.4 15.4 10.3 63 3.8 S 11 15 6 8 1016.1 1016.1 0.0
26/06:00pm 17.6 15.7 10.5 63 3.8 S 11 15 6 8 1015.9 1015.9 0.0
26/05:30pm 17.8 16.3 10.4 62 3.9 SSE 9 17 5 9 1015.7 1015.7 0.0

Other Formats:

Comma delimited format used in spreadsheet applications
http://www.bom.gov.au/fwo/IDN60801/IDN60801.95929.axf

JavaScript Object Notation format (JSON) in row-major order
http://www.bom.gov.au/fwo/IDN60801/IDN60801.95929.json